sensor_id;sensor_type;location;lat;lon;timestamp;pressure;altitude;pressure_sealevel;temperature;humidity
44103;BME280;29769;42.178;24.742;2024-03-23T00:55:29;99844.25;;;3.84;100.00
44103;BME280;29769;42.178;24.742;2024-03-23T00:58:13;99838.22;;;3.88;100.00
44103;BME280;29769;42.178;24.742;2024-03-23T01:00:58;99840.91;;;3.92;100.00
44103;BME280;29769;42.178;24.742;2024-03-23T01:03:43;99833.09;;;3.92;100.00
44103;BME280;29769;42.178;24.742;2024-03-23T01:06:27;99833.38;;;4.15;100.00
44103;BME280;29769;42.178;24.742;2024-03-23T01:09:11;99826.84;;;4.47;100.00
44103;BME280;29769;42.178;24.742;2024-03-23T01:11:56;99823.13;;;4.26;100.00
44103;BME280;29769;42.178;24.742;2024-03-23T01:14:41;99823.88;;;4.19;100.00
44103;BME280;29769;42.178;24.742;2024-03-23T01:17:25;99824.94;;;4.34;100.00
44103;BME280;29769;42.178;24.742;2024-03-23T01:20:10;99817.09;;;4.30;100.00
44103;BME280;29769;42.178;24.742;2024-03-23T01:22:55;99823.19;;;4.30;100.00
44103;BME280;29769;42.178;24.742;2024-03-23T01:25:39;99827.44;;;4.25;100.00
44103;BME280;29769;42.178;24.742;2024-03-23T01:28:24;99829.88;;;4.12;100.00
44103;BME280;29769;42.178;24.742;2024-03-23T01:31:09;99831.09;;;3.73;100.00
44103;BME280;29769;42.178;24.742;2024-03-23T01:33:54;99827.44;;;3.06;100.00
44103;BME280;29769;42.178;24.742;2024-03-23T01:36:39;99824.34;;;2.78;100.00
44103;BME280;29769;42.178;24.742;2024-03-23T01:39:24;99821.22;;;2.97;100.00
44103;BME280;29769;42.178;24.742;2024-03-23T01:42:09;99823.78;;;3.48;100.00
44103;BME280;29769;42.178;24.742;2024-03-23T01:44:54;99836.22;;;3.69;100.00
44103;BME280;29769;42.178;24.742;2024-03-23T01:47:38;99827.56;;;3.70;100.00
44103;BME280;29769;42.178;24.742;2024-03-23T01:50:22;99832.66;;;3.64;100.00
44103;BME280;29769;42.178;24.742;2024-03-23T01:53:08;99828.06;;;3.44;100.00
44103;BME280;29769;42.178;24.742;2024-03-23T01:55:53;99828.81;;;3.37;100.00
44103;BME280;29769;42.178;24.742;2024-03-23T01:58:38;99827.06;;;3.35;100.00
44103;BME280;29769;42.178;24.742;2024-03-23T02:01:22;99824.41;;;3.33;100.00
44103;BME280;29769;42.178;24.742;2024-03-23T02:04:07;99825.19;;;3.28;100.00
44103;BME280;29769;42.178;24.742;2024-03-23T02:06:53;99817.44;;;3.29;100.00
44103;BME280;29769;42.178;24.742;2024-03-23T02:09:38;99824.38;;;3.30;100.00
44103;BME280;29769;42.178;24.742;2024-03-23T02:12:22;99823.63;;;3.36;100.00
44103;BME280;29769;42.178;24.742;2024-03-23T02:15:07;99826.16;;;3.33;100.00
44103;BME280;29769;42.178;24.742;2024-03-23T02:17:53;99826.09;;;3.30;100.00
44103;BME280;29769;42.178;24.742;2024-03-23T02:20:38;99820.13;;;3.35;100.00
44103;BME280;29769;42.178;24.742;2024-03-23T02:23:23;99826.16;;;3.33;100.00
44103;BME280;29769;42.178;24.742;2024-03-23T02:26:09;99823.53;;;3.33;100.00
44103;BME280;29769;42.178;24.742;2024-03-23T02:28:53;99827.94;;;3.35;100.00
44103;BME280;29769;42.178;24.742;2024-03-23T02:31:38;99816.63;;;3.33;100.00
44103;BME280;29769;42.178;24.742;2024-03-23T02:34:23;99825.44;;;3.43;100.00
44103;BME280;29769;42.178;24.742;2024-03-23T02:37:11;99823.75;;;3.45;100.00
44103;BME280;29769;42.178;24.742;2024-03-23T02:39:56;99822.97;;;3.52;100.00
44103;BME280;29769;42.178;24.742;2024-03-23T02:42:40;99820.47;;;3.59;100.00
44103;BME280;29769;42.178;24.742;2024-03-23T02:45:25;99831.75;;;3.60;100.00
44103;BME280;29769;42.178;24.742;2024-03-23T02:48:10;99831.84;;;3.63;100.00
44103;BME280;29769;42.178;24.742;2024-03-23T02:50:54;99830.84;;;3.56;100.00
44103;BME280;29769;42.178;24.742;2024-03-23T02:53:39;99829.66;;;3.36;100.00
44103;BME280;29769;42.178;24.742;2024-03-23T02:56:23;99829.44;;;3.23;100.00
44103;BME280;29769;42.178;24.742;2024-03-23T02:59:07;99830.38;;;3.26;100.00
44103;BME280;29769;42.178;24.742;2024-03-23T03:01:52;99822.16;;;3.00;100.00
44103;BME280;29769;42.178;24.742;2024-03-23T03:04:36;99821.09;;;2.91;100.00
44103;BME280;29769;42.178;24.742;2024-03-23T03:07:21;99824.00;;;2.59;100.00
44103;BME280;29769;42.178;24.742;2024-03-23T03:10:06;99822.56;;;2.75;100.00
44103;BME280;29769;42.178;24.742;2024-03-23T03:12:52;99822.63;;;2.77;100.00
44103;BME280;29769;42.178;24.742;2024-03-23T03:15:37;99816.47;;;2.73;100.00
44103;BME280;29769;42.178;24.742;2024-03-23T03:18:21;99813.53;;;2.55;100.00
44103;BME280;29769;42.178;24.742;2024-03-23T03:21:06;99817.63;;;2.42;100.00
44103;BME280;29769;42.178;24.742;2024-03-23T03:23:55;99818.38;;;2.37;100.00
44103;BME280;29769;42.178;24.742;2024-03-23T03:26:41;99818.38;;;2.35;100.00
44103;BME280;29769;42.178;24.742;2024-03-23T03:29:25;99818.41;;;2.38;100.00
44103;BME280;29769;42.178;24.742;2024-03-23T03:32:10;99821.03;;;2.38;100.00
44103;BME280;29769;42.178;24.742;2024-03-23T03:34:56;99821.06;;;2.41;100.00
44103;BME280;29769;42.178;24.742;2024-03-23T03:37:40;99818.38;;;2.35;100.00
44103;BME280;29769;42.178;24.742;2024-03-23T03:40:25;99826.88;;;2.28;100.00
44103;BME280;29769;42.178;24.742;2024-03-23T03:43:10;99832.75;;;2.19;100.00
44103;BME280;29769;42.178;24.742;2024-03-23T03:45:54;99831.63;;;2.07;100.00
44103;BME280;29769;42.178;24.742;2024-03-23T03:48:39;99832.81;;;1.82;100.00
44103;BME280;29769;42.178;24.742;2024-03-23T03:51:23;99835.97;;;1.67;100.00
44103;BME280;29769;42.178;24.742;2024-03-23T03:54:08;99837.88;;;1.39;100.00
44103;BME280;29769;42.178;24.742;2024-03-23T03:56:52;99837.41;;;1.19;100.00
44103;BME280;29769;42.178;24.742;2024-03-23T03:59:37;99833.66;;;1.06;100.00
44103;BME280;29769;42.178;24.742;2024-03-23T04:02:22;99850.72;;;0.98;100.00
44103;BME280;29769;42.178;24.742;2024-03-23T04:05:07;99851.47;;;0.94;100.00
44103;BME280;29769;42.178;24.742;2024-03-23T04:07:52;99852.91;;;0.83;100.00
44103;BME280;29769;42.178;24.742;2024-03-23T04:10:36;99857.06;;;0.76;100.00
44103;BME280;29769;42.178;24.742;2024-03-23T04:13:20;99853.72;;;0.80;100.00
44103;BME280;29769;42.178;24.742;2024-03-23T04:16:05;99851.19;;;0.83;100.00
44103;BME280;29769;42.178;24.742;2024-03-23T04:18:49;99852.38;;;0.95;100.00
44103;BME280;29769;42.178;24.742;2024-03-23T04:21:34;99857.66;;;1.01;100.00
44103;BME280;29769;42.178;24.742;2024-03-23T04:24:18;99857.13;;;1.12;100.00
44103;BME280;29769;42.178;24.742;2024-03-23T04:27:05;99856.19;;;1.09;100.00
44103;BME280;29769;42.178;24.742;2024-03-23T04:29:50;99855.78;;;0.94;100.00
44103;BME280;29769;42.178;24.742;2024-03-23T04:32:35;99859.56;;;0.73;100.00
44103;BME280;29769;42.178;24.742;2024-03-23T04:35:20;99863.66;;;0.65;100.00
44103;BME280;29769;42.178;24.742;2024-03-23T04:38:06;99864.38;;;0.60;100.00
44103;BME280;29769;42.178;24.742;2024-03-23T04:40:57;99866.94;;;0.58;100.00
44103;BME280;29769;42.178;24.742;2024-03-23T04:43:42;99863.72;;;0.67;100.00
44103;BME280;29769;42.178;24.742;2024-03-23T04:46:27;99870.66;;;0.69;100.00
44103;BME280;29769;42.178;24.742;2024-03-23T04:49:12;99863.13;;;0.77;100.00
44103;BME280;29769;42.178;24.742;2024-03-23T04:51:58;99870.28;;;0.87;100.00
44103;BME280;29769;42.178;24.742;2024-03-23T04:54:43;99868.03;;;0.99;100.00
44103;BME280;29769;42.178;24.742;2024-03-23T04:57:28;99868.50;;;1.19;100.00
44103;BME280;29769;42.178;24.742;2024-03-23T05:00:13;99869.81;;;1.36;100.00
44103;BME280;29769;42.178;24.742;2024-03-23T05:03:04;99862.47;;;1.56;100.00
44103;BME280;29769;42.178;24.742;2024-03-23T05:05:48;99869.22;;;1.85;100.00
44103;BME280;29769;42.178;24.742;2024-03-23T05:08:33;99859.59;;;2.20;100.00
44103;BME280;29769;42.178;24.742;2024-03-23T05:11:18;99867.88;;;2.46;100.00
44103;BME280;29769;42.178;24.742;2024-03-23T05:14:02;99861.59;;;2.78;100.00
44103;BME280;29769;42.178;24.742;2024-03-23T05:16:47;99857.78;;;3.07;100.00
44103;BME280;29769;42.178;24.742;2024-03-23T05:19:32;99858.22;;;3.33;100.00
44103;BME280;29769;42.178;24.742;2024-03-23T05:22:17;99857.69;;;3.55;100.00
44103;BME280;29769;42.178;24.742;2024-03-23T05:25:01;99863.97;;;3.67;100.00
44103;BME280;29769;42.178;24.742;2024-03-23T05:27:49;99857.44;;;3.94;100.00
44103;BME280;29769;42.178;24.742;2024-03-23T05:30:34;99856.91;;;4.21;100.00
44103;BME280;29769;42.178;24.742;2024-03-23T05:33:18;99858.00;;;4.41;100.00
44103;BME280;29769;42.178;24.742;2024-03-23T05:36:04;99855.03;;;4.86;100.00
44103;BME280;29769;42.178;24.742;2024-03-23T05:38:49;99855.53;;;5.40;96.31
44103;BME280;29769;42.178;24.742;2024-03-23T05:41:34;99857.59;;;5.85;90.79
44103;BME280;29769;42.178;24.742;2024-03-23T05:44:20;99857.84;;;6.25;86.79
44103;BME280;29769;42.178;24.742;2024-03-23T05:47:05;99849.25;;;6.51;83.42
44103;BME280;29769;42.178;24.742;2024-03-23T05:49:49;99857.19;;;6.89;80.90
44103;BME280;29769;42.178;24.742;2024-03-23T05:52:36;99850.25;;;7.32;79.72
44103;BME280;29769;42.178;24.742;2024-03-23T05:55:20;99854.63;;;7.62;76.35
44103;BME280;29769;42.178;24.742;2024-03-23T05:58:05;99852.88;;;7.53;75.39
44103;BME280;29769;42.178;24.742;2024-03-23T06:00:49;99853.66;;;8.10;74.30
44103;BME280;29769;42.178;24.742;2024-03-23T06:03:41;99854.47;;;8.43;71.39
44103;BME280;29769;42.178;24.742;2024-03-23T06:06:25;99846.97;;;9.23;68.86
44103;BME280;29769;42.178;24.742;2024-03-23T06:09:10;99848.63;;;9.37;66.88
44103;BME280;29769;42.178;24.742;2024-03-23T06:11:55;99844.00;;;9.65;64.75
44103;BME280;29769;42.178;24.742;2024-03-23T06:14:39;99840.91;;;10.12;64.40
44103;BME280;29769;42.178;24.742;2024-03-23T06:17:23;99842.22;;;10.51;61.27
44103;BME280;29769;42.178;24.742;2024-03-23T06:20:08;99839.38;;;10.68;59.68
44103;BME280;29769;42.178;24.742;2024-03-23T06:22:53;99839.91;;;10.91;58.46
44103;BME280;29769;42.178;24.742;2024-03-23T06:25:37;99847.25;;;10.68;59.69
44103;BME280;29769;42.178;24.742;2024-03-23T06:28:22;99842.56;;;10.91;58.97
44103;BME280;29769;42.178;24.742;2024-03-23T06:31:09;99831.25;;;10.85;61.12
44103;BME280;29769;42.178;24.742;2024-03-23T06:33:55;99845.03;;;11.57;57.87
44103;BME280;29769;42.178;24.742;2024-03-23T06:36:39;99843.56;;;11.93;56.38
44103;BME280;29769;42.178;24.742;2024-03-23T06:39:24;99842.50;;;12.03;55.72
44103;BME280;29769;42.178;24.742;2024-03-23T06:42:09;99831.06;;;12.47;54.04
44103;BME280;29769;42.178;24.742;2024-03-23T06:44:53;99841.00;;;12.76;53.10
44103;BME280;29769;42.178;24.742;2024-03-23T06:47:37;99831.53;;;13.04;52.16
44103;BME280;29769;42.178;24.742;2024-03-23T06:50:22;99825.75;;;13.27;51.76
44103;BME280;29769;42.178;24.742;2024-03-23T06:53:07;99833.28;;;14.11;49.01
44103;BME280;29769;42.178;24.742;2024-03-23T06:55:52;99820.41;;;15.18;47.00
44103;BME280;29769;42.178;24.742;2024-03-23T06:58:37;99832.41;;;15.57;44.27
44103;BME280;29769;42.178;24.742;2024-03-23T07:01:22;99823.13;;;16.20;43.27
44103;BME280;29769;42.178;24.742;2024-03-23T07:04:07;99817.06;;;16.88;41.21
44103;BME280;29769;42.178;24.742;2024-03-23T07:06:51;99825.16;;;17.50;40.13
44103;BME280;29769;42.178;24.742;2024-03-23T07:09:36;99812.59;;;17.96;38.66
44103;BME280;29769;42.178;24.742;2024-03-23T07:12:22;99800.44;;;18.49;37.59
44103;BME280;29769;42.178;24.742;2024-03-23T07:15:06;99808.41;;;19.79;36.03
44103;BME280;29769;42.178;24.742;2024-03-23T07:17:52;99799.34;;;20.66;33.93
44103;BME280;29769;42.178;24.742;2024-03-23T07:20:37;99797.50;;;19.83;33.70
44103;BME280;29769;42.178;24.742;2024-03-23T07:23:22;99796.81;;;20.13;33.54
44103;BME280;29769;42.178;24.742;2024-03-23T07:26:06;99792.97;;;20.84;32.69
44103;BME280;29769;42.178;24.742;2024-03-23T07:28:52;99793.63;;;21.96;31.23
44103;BME280;29769;42.178;24.742;2024-03-23T07:31:37;99781.88;;;21.98;30.61
44103;BME280;29769;42.178;24.742;2024-03-23T07:34:23;99782.00;;;22.82;29.53
44103;BME280;29769;42.178;24.742;2024-03-23T07:37:08;99780.81;;;23.80;28.70
44103;BME280;29769;42.178;24.742;2024-03-23T07:39:53;99782.19;;;22.65;28.30
44103;BME280;29769;42.178;24.742;2024-03-23T07:42:38;99778.66;;;22.50;28.98
44103;BME280;29769;42.178;24.742;2024-03-23T07:45:22;99787.81;;;22.17;30.28
44103;BME280;29769;42.178;24.742;2024-03-23T07:48:07;99779.44;;;21.34;30.59
44103;BME280;29769;42.178;24.742;2024-03-23T07:53:45;99760.00;;;22.48;29.62
44103;BME280;29769;42.178;24.742;2024-03-23T07:56:37;99760.56;;;24.14;28.15
44103;BME280;29769;42.178;24.742;2024-03-23T07:59:21;99755.69;;;22.17;30.62
44103;BME280;29769;42.178;24.742;2024-03-23T08:02:07;99761.88;;;21.44;31.51
44103;BME280;29769;42.178;24.742;2024-03-23T08:04:51;99751.84;;;22.50;30.77
44103;BME280;29769;42.178;24.742;2024-03-23T08:07:37;99746.81;;;23.27;29.24
44103;BME280;29769;42.178;24.742;2024-03-23T08:10:21;99740.72;;;24.29;28.26
44103;BME280;29769;42.178;24.742;2024-03-23T08:13:06;99740.09;;;25.35;26.98
44103;BME280;29769;42.178;24.742;2024-03-23T08:15:50;99745.50;;;26.05;26.14
44103;BME280;29769;42.178;24.742;2024-03-23T08:18:34;99738.53;;;27.25;24.98
44103;BME280;29769;42.178;24.742;2024-03-23T08:21:19;99732.25;;;27.24;24.41
44103;BME280;29769;42.178;24.742;2024-03-23T08:24:04;99732.34;;;26.46;24.50
44103;BME280;29769;42.178;24.742;2024-03-23T08:26:49;99739.63;;;25.89;25.22
44103;BME280;29769;42.178;24.742;2024-03-23T08:29:34;99726.94;;;26.35;24.08
44103;BME280;29769;42.178;24.742;2024-03-23T08:32:18;99722.72;;;25.98;24.35
44103;BME280;29769;42.178;24.742;2024-03-23T08:35:03;99707.91;;;27.88;22.93
44103;BME280;29769;42.178;24.742;2024-03-23T08:37:48;99711.19;;;27.50;22.84
44103;BME280;29769;42.178;24.742;2024-03-23T08:40:32;99716.59;;;27.50;23.34
44103;BME280;29769;42.178;24.742;2024-03-23T08:43:17;99708.22;;;28.76;21.96
44103;BME280;29769;42.178;24.742;2024-03-23T08:46:05;99698.19;;;29.26;21.12
44103;BME280;29769;42.178;24.742;2024-03-23T08:48:51;99700.31;;;28.63;21.70
44103;BME280;29769;42.178;24.742;2024-03-23T08:51:36;99697.03;;;28.60;21.53
44103;BME280;29769;42.178;24.742;2024-03-23T08:54:21;99695.31;;;30.14;20.38
44103;BME280;29769;42.178;24.742;2024-03-23T08:57:07;99690.22;;;29.82;19.89
44103;BME280;29769;42.178;24.742;2024-03-23T08:59:52;99684.94;;;30.37;19.84
44103;BME280;29769;42.178;24.742;2024-03-23T09:02:36;99684.00;;;31.63;18.93
44103;BME280;29769;42.178;24.742;2024-03-23T09:05:21;99675.59;;;32.18;18.52
44103;BME280;29769;42.178;24.742;2024-03-23T09:08:06;99671.34;;;32.91;17.30
44103;BME280;29769;42.178;24.742;2024-03-23T09:10:51;99668.88;;;30.80;18.39
44103;BME280;29769;42.178;24.742;2024-03-23T09:13:36;99668.31;;;31.40;17.99
44103;BME280;29769;42.178;24.742;2024-03-23T09:16:21;99667.47;;;33.02;16.62
44103;BME280;29769;42.178;24.742;2024-03-23T09:19:06;99652.69;;;33.21;17.53
44103;BME280;29769;42.178;24.742;2024-03-23T09:21:50;99658.72;;;30.82;18.77
44103;BME280;29769;42.178;24.742;2024-03-23T09:24:35;99653.41;;;31.26;18.10
44103;BME280;29769;42.178;24.742;2024-03-23T09:27:19;99638.75;;;32.32;18.03
44103;BME280;29769;42.178;24.742;2024-03-23T09:30:04;99639.44;;;29.27;20.68
44103;BME280;29769;42.178;24.742;2024-03-23T09:32:49;99643.22;;;30.48;20.47
44103;BME280;29769;42.178;24.742;2024-03-23T09:35:37;99637.66;;;31.12;19.55
44103;BME280;29769;42.178;24.742;2024-03-23T09:38:22;99628.03;;;31.78;20.19
44103;BME280;29769;42.178;24.742;2024-03-23T09:41:10;99621.50;;;32.15;19.29
44103;BME280;29769;42.178;24.742;2024-03-23T09:43:55;99617.59;;;33.18;18.49
44103;BME280;29769;42.178;24.742;2024-03-23T09:46:39;99614.19;;;33.16;18.09
44103;BME280;29769;42.178;24.742;2024-03-23T09:49:24;99613.09;;;33.00;17.86
44103;BME280;29769;42.178;24.742;2024-03-23T09:52:09;99606.94;;;32.74;18.28
44103;BME280;29769;42.178;24.742;2024-03-23T09:54:55;99607.00;;;33.71;17.00
44103;BME280;29769;42.178;24.742;2024-03-23T09:57:39;99599.03;;;33.37;16.93
44103;BME280;29769;42.178;24.742;2024-03-23T10:00:24;99599.16;;;33.76;16.95
44103;BME280;29769;42.178;24.742;2024-03-23T10:03:09;99595.88;;;34.52;16.48
44103;BME280;29769;42.178;24.742;2024-03-23T10:06:02;99594.50;;;35.33;15.68
44103;BME280;29769;42.178;24.742;2024-03-23T10:08:47;99582.19;;;32.59;17.20
44103;BME280;29769;42.178;24.742;2024-03-23T10:11:31;99572.63;;;32.55;17.49
44103;BME280;29769;42.178;24.742;2024-03-23T10:14:28;99572.38;;;34.35;16.34
44103;BME280;29769;42.178;24.742;2024-03-23T10:20:03;99566.63;;;33.50;16.91
44103;BME280;29769;42.178;24.742;2024-03-23T10:22:54;99561.22;;;35.06;15.31
44103;BME280;29769;42.178;24.742;2024-03-23T10:25:40;99550.63;;;35.03;15.15
44103;BME280;29769;42.178;24.742;2024-03-23T10:28:25;99552.75;;;34.62;15.29
44103;BME280;29769;42.178;24.742;2024-03-23T10:31:11;99543.78;;;34.23;15.76
44103;BME280;29769;42.178;24.742;2024-03-23T10:33:56;99536.13;;;33.47;16.22
44103;BME280;29769;42.178;24.742;2024-03-23T10:36:41;99533.13;;;32.01;17.69
44103;BME280;29769;42.178;24.742;2024-03-23T10:39:26;99528.31;;;33.12;17.06
44103;BME280;29769;42.178;24.742;2024-03-23T10:42:10;99524.84;;;34.52;15.69
44103;BME280;29769;42.178;24.742;2024-03-23T10:44:55;99513.78;;;34.46;16.41
44103;BME280;29769;42.178;24.742;2024-03-23T10:47:40;99513.91;;;34.29;16.12
44103;BME280;29769;42.178;24.742;2024-03-23T10:50:25;99513.03;;;35.57;15.99
44103;BME280;29769;42.178;24.742;2024-03-23T10:53:10;99505.63;;;36.61;15.19
44103;BME280;29769;42.178;24.742;2024-03-23T10:55:56;99498.84;;;36.78;14.22
44103;BME280;29769;42.178;24.742;2024-03-23T10:58:42;99493.81;;;35.80;15.47
44103;BME280;29769;42.178;24.742;2024-03-23T11:01:27;99494.06;;;35.04;16.01
44103;BME280;29769;42.178;24.742;2024-03-23T11:04:12;99484.38;;;35.39;15.15
44103;BME280;29769;42.178;24.742;2024-03-23T11:07:29;99481.59;;;34.87;15.08
44103;BME280;29769;42.178;24.742;2024-03-23T11:10:25;99469.25;;;34.91;15.35
44103;BME280;29769;42.178;24.742;2024-03-23T11:13:22;99461.09;;;35.72;14.92
44103;BME280;29769;42.178;24.742;2024-03-23T11:22:02;99440.69;;;35.89;14.94
44103;BME280;29769;42.178;24.742;2024-03-23T11:24:51;99447.13;;;34.01;15.95
44103;BME280;29769;42.178;24.742;2024-03-23T11:27:35;99433.72;;;34.45;15.43
44103;BME280;29769;42.178;24.742;2024-03-23T11:30:20;99429.28;;;35.56;14.66
44103;BME280;29769;42.178;24.742;2024-03-23T11:33:06;99423.50;;;36.31;13.96
44103;BME280;29769;42.178;24.742;2024-03-23T11:35:52;99411.66;;;36.45;14.01
44103;BME280;29769;42.178;24.742;2024-03-23T11:38:37;99408.50;;;35.91;14.29
44103;BME280;29769;42.178;24.742;2024-03-23T11:41:22;99400.25;;;34.74;15.14
44103;BME280;29769;42.178;24.742;2024-03-23T11:47:07;99389.88;;;32.83;15.97
44103;BME280;29769;42.178;24.742;2024-03-23T11:49:52;99382.50;;;33.93;15.86
44103;BME280;29769;42.178;24.742;2024-03-23T11:52:37;99372.53;;;34.54;14.99
44103;BME280;29769;42.178;24.742;2024-03-23T11:55:22;99376.81;;;35.09;14.88
44103;BME280;29769;42.178;24.742;2024-03-23T11:58:09;99373.13;;;36.47;14.28
44103;BME280;29769;42.178;24.742;2024-03-23T12:01:01;99362.31;;;35.52;14.31
44103;BME280;29769;42.178;24.742;2024-03-23T12:03:47;99372.13;;;35.17;15.11
44103;BME280;29769;42.178;24.742;2024-03-23T12:06:32;99353.91;;;34.35;15.19
44103;BME280;29769;42.178;24.742;2024-03-23T12:09:16;99355.66;;;34.05;15.93
44103;BME280;29769;42.178;24.742;2024-03-23T12:12:13;99337.09;;;34.69;15.25
44103;BME280;29769;42.178;24.742;2024-03-23T12:15:05;99341.19;;;35.97;14.52
44103;BME280;29769;42.178;24.742;2024-03-23T12:17:50;99338.31;;;37.24;13.51
44103;BME280;29769;42.178;24.742;2024-03-23T12:20:34;99332.16;;;36.60;13.39
44103;BME280;29769;42.178;24.742;2024-03-23T12:23:19;99327.25;;;35.92;13.41
44103;BME280;29769;42.178;24.742;2024-03-23T12:26:05;99325.34;;;35.56;14.16
44103;BME280;29769;42.178;24.742;2024-03-23T12:28:50;99320.41;;;33.73;15.26
44103;BME280;29769;42.178;24.742;2024-03-23T12:31:35;99316.00;;;32.37;15.32
44103;BME280;29769;42.178;24.742;2024-03-23T12:34:19;99311.28;;;33.88;15.20
44103;BME280;29769;42.178;24.742;2024-03-23T12:37:04;99306.03;;;34.99;14.68
44103;BME280;29769;42.178;24.742;2024-03-23T12:39:50;99295.16;;;36.49;13.13
44103;BME280;29769;42.178;24.742;2024-03-23T12:42:34;99294.19;;;37.67;12.90
44103;BME280;29769;42.178;24.742;2024-03-23T12:45:19;99293.59;;;36.96;13.14
44103;BME280;29769;42.178;24.742;2024-03-23T12:48:04;99282.34;;;35.36;13.87
44103;BME280;29769;42.178;24.742;2024-03-23T12:50:54;99280.50;;;35.72;14.15
44103;BME280;29769;42.178;24.742;2024-03-23T12:53:38;99271.66;;;36.13;13.78
44103;BME280;29769;42.178;24.742;2024-03-23T12:56:23;99265.78;;;35.73;13.63
44103;BME280;29769;42.178;24.742;2024-03-23T12:59:08;99267.94;;;31.47;15.66
44103;BME280;29769;42.178;24.742;2024-03-23T13:01:52;99274.88;;;32.95;14.73
44103;BME280;29769;42.178;24.742;2024-03-23T13:04:37;99263.34;;;32.93;14.52
44103;BME280;29769;42.178;24.742;2024-03-23T13:07:22;99262.09;;;32.25;15.38
44103;BME280;29769;42.178;24.742;2024-03-23T13:10:06;99254.91;;;31.67;15.47
44103;BME280;29769;42.178;24.742;2024-03-23T13:12:51;99256.91;;;30.73;16.75
44103;BME280;29769;42.178;24.742;2024-03-23T13:15:37;99252.22;;;32.24;15.79
44103;BME280;29769;42.178;24.742;2024-03-23T13:18:22;99243.81;;;32.57;15.12
44103;BME280;29769;42.178;24.742;2024-03-23T13:21:06;99239.44;;;30.24;16.75
44103;BME280;29769;42.178;24.742;2024-03-23T13:23:51;99232.06;;;29.55;17.27
44103;BME280;29769;42.178;24.742;2024-03-23T13:26:36;99246.63;;;28.06;18.31
44103;BME280;29769;42.178;24.742;2024-03-23T13:29:21;99232.41;;;28.60;17.25
44103;BME280;29769;42.178;24.742;2024-03-23T13:32:06;99224.47;;;27.64;17.21
44103;BME280;29769;42.178;24.742;2024-03-23T13:34:51;99221.13;;;28.28;17.73
44103;BME280;29769;42.178;24.742;2024-03-23T13:37:36;99226.53;;;27.32;17.88
44103;BME280;29769;42.178;24.742;2024-03-23T13:40:21;99208.97;;;26.27;19.42
44103;BME280;29769;42.178;24.742;2024-03-23T13:43:05;99208.91;;;26.18;20.06
44103;BME280;29769;42.178;24.742;2024-03-23T13:45:51;99207.00;;;26.60;18.44
44103;BME280;29769;42.178;24.742;2024-03-23T13:48:37;99204.56;;;25.64;20.51
44103;BME280;29769;42.178;24.742;2024-03-23T13:51:25;99199.84;;;25.13;21.14
44103;BME280;29769;42.178;24.742;2024-03-23T13:54:11;99200.50;;;25.38;21.18
44103;BME280;29769;42.178;24.742;2024-03-23T13:56:56;99186.19;;;25.37;21.33
44103;BME280;29769;42.178;24.742;2024-03-23T13:59:40;99186.75;;;25.20;21.62
44103;BME280;29769;42.178;24.742;2024-03-23T14:02:25;99194.00;;;24.08;21.50
44103;BME280;29769;42.178;24.742;2024-03-23T14:05:09;99190.91;;;23.79;21.86
44103;BME280;29769;42.178;24.742;2024-03-23T14:07:55;99196.69;;;23.97;21.98
44103;BME280;29769;42.178;24.742;2024-03-23T14:10:40;99182.09;;;24.34;21.14
44103;BME280;29769;42.178;24.742;2024-03-23T14:13:25;99180.13;;;24.48;20.66
44103;BME280;29769;42.178;24.742;2024-03-23T14:16:09;99182.19;;;24.44;20.92
44103;BME280;29769;42.178;24.742;2024-03-23T14:18:54;99174.47;;;24.06;22.32
44103;BME280;29769;42.178;24.742;2024-03-23T14:21:38;99170.69;;;23.98;22.10
44103;BME280;29769;42.178;24.742;2024-03-23T14:24:22;99163.81;;;23.82;21.35
44103;BME280;29769;42.178;24.742;2024-03-23T14:27:08;99167.03;;;23.29;21.48
44103;BME280;29769;42.178;24.742;2024-03-23T14:29:53;99165.81;;;23.33;22.52
44103;BME280;29769;42.178;24.742;2024-03-23T14:32:38;99154.56;;;23.28;22.66
44103;BME280;29769;42.178;24.742;2024-03-23T14:35:23;99164.56;;;23.49;22.54
44103;BME280;29769;42.178;24.742;2024-03-23T14:38:08;99160.19;;;23.01;22.35
44103;BME280;29769;42.178;24.742;2024-03-23T14:40:52;99150.44;;;23.00;22.62
44103;BME280;29769;42.178;24.742;2024-03-23T14:43:37;99150.78;;;23.19;23.38
44103;BME280;29769;42.178;24.742;2024-03-23T14:46:21;99135.63;;;22.94;23.71
44103;BME280;29769;42.178;24.742;2024-03-23T14:49:07;99139.34;;;22.81;23.65
44103;BME280;29769;42.178;24.742;2024-03-23T14:51:52;99134.84;;;22.81;23.36
44103;BME280;29769;42.178;24.742;2024-03-23T14:54:36;99134.16;;;21.80;23.81
44103;BME280;29769;42.178;24.742;2024-03-23T14:57:20;99142.59;;;21.86;23.50
44103;BME280;29769;42.178;24.742;2024-03-23T15:00:09;99137.56;;;22.20;23.71
44103;BME280;29769;42.178;24.742;2024-03-23T15:02:54;99135.94;;;22.30;22.46
44103;BME280;29769;42.178;24.742;2024-03-23T15:05:39;99122.22;;;22.34;22.67
44103;BME280;29769;42.178;24.742;2024-03-23T15:08:24;99133.31;;;21.27;23.30
44103;BME280;29769;42.178;24.742;2024-03-23T15:11:08;99132.47;;;21.26;24.58
44103;BME280;29769;42.178;24.742;2024-03-23T15:13:53;99127.63;;;21.71;24.16
44103;BME280;29769;42.178;24.742;2024-03-23T15:16:39;99134.25;;;21.78;23.97
44103;BME280;29769;42.178;24.742;2024-03-23T15:19:25;99126.09;;;21.42;24.50
44103;BME280;29769;42.178;24.742;2024-03-23T15:22:09;99123.81;;;21.36;25.42
44103;BME280;29769;42.178;24.742;2024-03-23T15:24:54;99114.88;;;20.56;25.75
44103;BME280;29769;42.178;24.742;2024-03-23T15:27:38;99123.78;;;20.42;26.17
44103;BME280;29769;42.178;24.742;2024-03-23T15:30:23;99121.47;;;20.51;26.36
44103;BME280;29769;42.178;24.742;2024-03-23T15:33:08;99114.19;;;20.12;26.55